createdAt,value
2017-10-27T00:00:18.064Z,0
2017-10-27T00:01:19.463Z,0
2017-10-27T00:02:20.911Z,0
2017-10-27T00:03:22.296Z,0
2017-10-27T00:04:25.744Z,0
2017-10-27T00:05:27.135Z,0
2017-10-27T00:06:28.515Z,0
2017-10-27T00:07:29.931Z,0
2017-10-27T00:08:32.317Z,0
2017-10-27T00:09:33.716Z,0
2017-10-27T00:10:35.116Z,0
2017-10-27T00:11:36.489Z,0
2017-10-27T00:12:37.885Z,0
2017-10-27T00:13:39.263Z,0
2017-10-27T00:14:40.660Z,0
2017-10-27T00:15:42.044Z,0
2017-10-27T00:16:43.452Z,0
2017-10-27T00:17:44.832Z,0
2017-10-27T00:18:46.319Z,0
2017-10-27T00:19:47.686Z,0
2017-10-27T00:20:49.090Z,0
2017-10-27T00:21:50.492Z,0
2017-10-27T00:22:51.973Z,0
2017-10-27T00:23:53.358Z,0
2017-10-27T00:24:54.759Z,0
2017-10-27T00:25:56.146Z,0
2017-10-27T00:26:57.621Z,0
2017-10-27T00:27:58.995Z,0
2017-10-27T00:29:00.427Z,0
2017-10-27T00:30:01.806Z,0
2017-10-27T00:31:03.299Z,0
2017-10-27T00:32:04.690Z,0
2017-10-27T00:33:06.275Z,0
2017-10-27T00:34:07.665Z,0
2017-10-27T00:35:09.152Z,0
2017-10-27T00:36:10.536Z,0
2017-10-27T00:37:11.964Z,0
2017-10-27T00:38:13.339Z,0
2017-10-27T00:39:14.820Z,0
2017-10-27T00:40:16.216Z,0
2017-10-27T00:41:17.692Z,0
2017-10-27T00:42:19.054Z,0
2017-10-27T00:43:20.469Z,0
2017-10-27T00:44:21.837Z,0
2017-10-27T00:45:23.240Z,0
2017-10-27T00:46:24.613Z,0
2017-10-27T00:47:27.064Z,0
2017-10-27T00:48:28.439Z,0
2017-10-27T00:49:29.933Z,0
2017-10-27T00:50:31.311Z,0
2017-10-27T00:51:32.706Z,0
2017-10-27T00:52:34.077Z,0
2017-10-27T00:53:35.500Z,0
2017-10-27T00:54:36.870Z,0
2017-10-27T00:55:38.262Z,0
2017-10-27T00:56:39.634Z,0
2017-10-27T00:57:43.099Z,0
2017-10-27T00:58:44.464Z,0
2017-10-27T00:59:45.873Z,0
2017-10-27T01:00:47.246Z,0
2017-10-27T01:01:48.649Z,0
2017-10-27T01:02:50.065Z,0
2017-10-27T01:03:51.523Z,0
2017-10-27T01:04:52.903Z,0
2017-10-27T01:05:54.316Z,0
2017-10-27T01:06:55.713Z,0
2017-10-27T01:07:58.108Z,0
2017-10-27T01:08:59.478Z,0
2017-10-27T01:10:00.936Z,0
2017-10-27T01:11:02.302Z,0
2017-10-27T01:12:03.812Z,0
2017-10-27T01:13:05.181Z,0
2017-10-27T01:14:06.638Z,0
2017-10-27T01:15:08.032Z,0
2017-10-27T01:16:09.418Z,0
2017-10-27T01:17:10.812Z,0
2017-10-27T01:18:12.336Z,0
2017-10-27T01:19:13.715Z,0
2017-10-27T01:20:15.176Z,0
2017-10-27T01:21:16.536Z,0
2017-10-27T01:22:17.948Z,0
2017-10-27T01:23:19.786Z,0
2017-10-27T01:24:21.238Z,0
2017-10-27T01:25:22.611Z,0
2017-10-27T01:26:24.016Z,0
2017-10-27T01:27:25.382Z,0
2017-10-27T01:28:26.797Z,0
2017-10-27T01:29:28.182Z,0
2017-10-27T01:30:29.569Z,0
2017-10-27T01:31:30.940Z,0
2017-10-27T01:32:32.365Z,0
2017-10-27T01:33:33.738Z,0
2017-10-27T01:34:35.157Z,0
2017-10-27T01:35:36.522Z,0
2017-10-27T01:36:37.908Z,0
2017-10-27T01:37:39.279Z,0
2017-10-27T01:38:40.712Z,0
2017-10-27T01:39:42.101Z,0
2017-10-27T01:40:43.565Z,0
2017-10-27T01:41:44.974Z,0
2017-10-27T01:42:46.446Z,0
2017-10-27T01:43:47.828Z,0
2017-10-27T01:44:49.274Z,0
2017-10-27T01:45:50.641Z,0
2017-10-27T01:46:52.108Z,0
2017-10-27T01:47:53.490Z,0
2017-10-27T01:48:54.935Z,0
2017-10-27T01:49:56.298Z,0
2017-10-27T01:50:57.758Z,0
2017-10-27T01:51:59.146Z,0
2017-10-27T01:53:00.539Z,0
2017-10-27T01:54:01.909Z,0
2017-10-27T01:55:03.325Z,0
2017-10-27T01:56:04.721Z,0
2017-10-27T01:57:06.535Z,0
2017-10-27T01:58:07.931Z,0
2017-10-27T01:59:09.384Z,0
2017-10-27T02:00:10.769Z,0
2017-10-27T02:01:12.169Z,0
2017-10-27T02:02:13.533Z,0
2017-10-27T02:03:14.942Z,0
2017-10-27T02:04:16.329Z,0
2017-10-27T02:05:17.828Z,0
2017-10-27T02:06:19.208Z,0
2017-10-27T02:07:20.598Z,0
2017-10-27T02:08:21.961Z,0
2017-10-27T02:09:23.373Z,0
2017-10-27T02:10:24.781Z,0
2017-10-27T02:11:26.275Z,0
2017-10-27T02:12:27.663Z,0
2017-10-27T02:13:29.134Z,0
2017-10-27T02:14:30.526Z,0
2017-10-27T02:15:31.943Z,0
2017-10-27T02:16:33.340Z,0
2017-10-27T02:17:36.745Z,0
2017-10-27T02:18:38.102Z,0
2017-10-27T02:19:39.518Z,0
2017-10-27T02:20:40.892Z,0
2017-10-27T02:21:42.300Z,0
2017-10-27T02:22:43.682Z,0
2017-10-27T02:23:45.073Z,0
2017-10-27T02:24:46.445Z,0
2017-10-27T02:25:47.856Z,0
2017-10-27T02:26:49.232Z,0
2017-10-27T02:27:50.641Z,0
2017-10-27T02:28:52.434Z,0
2017-10-27T02:29:53.828Z,0
2017-10-27T02:30:55.186Z,0
2017-10-27T02:31:56.600Z,0
2017-10-27T02:32:57.957Z,0
2017-10-27T02:33:59.384Z,0
2017-10-27T02:35:00.746Z,0
2017-10-27T02:36:02.157Z,0
2017-10-27T02:37:03.535Z,0
2017-10-27T02:38:04.962Z,0
2017-10-27T02:39:06.330Z,0
2017-10-27T02:40:07.832Z,0
2017-10-27T02:41:09.203Z,0
2017-10-27T02:42:10.599Z,0
2017-10-27T02:43:12.053Z,0
2017-10-27T02:44:13.441Z,0
2017-10-27T02:45:14.828Z,0
2017-10-27T02:46:16.204Z,0
2017-10-27T02:47:17.611Z,0
2017-10-27T02:48:18.988Z,0
2017-10-27T02:49:20.519Z,0
2017-10-27T02:50:21.883Z,0
2017-10-27T02:51:23.369Z,0
2017-10-27T02:52:24.747Z,0
2017-10-27T02:53:26.245Z,0
2017-10-27T02:54:27.615Z,0
2017-10-27T02:55:29.024Z,0
2017-10-27T02:56:30.425Z,0
2017-10-27T02:57:32.848Z,0
2017-10-27T02:58:34.223Z,0
2017-10-27T02:59:35.730Z,0
2017-10-27T03:00:37.110Z,0
2017-10-27T03:01:38.592Z,0
2017-10-27T03:02:39.958Z,0
2017-10-27T03:03:41.377Z,0
2017-10-27T03:04:42.749Z,0
2017-10-27T03:05:44.251Z,0
2017-10-27T03:06:45.630Z,0
2017-10-27T03:07:47.019Z,0
2017-10-27T03:08:48.388Z,0
2017-10-27T03:09:49.797Z,0
2017-10-27T03:10:51.168Z,0
2017-10-27T03:11:52.582Z,0
2017-10-27T03:12:53.951Z,0
2017-10-27T03:13:55.352Z,0
2017-10-27T03:14:56.726Z,0
2017-10-27T03:15:58.109Z,0
2017-10-27T03:16:59.571Z,0
2017-10-27T03:18:00.951Z,0
2017-10-27T03:19:02.353Z,0
2017-10-27T03:20:03.719Z,0
2017-10-27T03:21:05.135Z,0
2017-10-27T03:22:06.510Z,0
2017-10-27T03:23:08.006Z,0
2017-10-27T03:24:09.376Z,0
2017-10-27T03:25:10.784Z,0
2017-10-27T03:26:12.192Z,0
2017-10-27T03:27:13.583Z,0
2017-10-27T03:28:15.047Z,0
2017-10-27T03:29:16.419Z,0
2017-10-27T03:30:17.886Z,0
2017-10-27T03:31:19.246Z,0
2017-10-27T03:32:20.659Z,0
2017-10-27T03:33:22.045Z,0
2017-10-27T03:34:23.543Z,0
2017-10-27T03:35:24.977Z,0
2017-10-27T03:36:27.460Z,0
2017-10-27T03:37:28.831Z,0
2017-10-27T03:38:30.353Z,0
2017-10-27T03:39:31.722Z,0
2017-10-27T03:40:33.210Z,0
2017-10-27T03:41:34.609Z,0
2017-10-27T03:42:36.094Z,0
2017-10-27T03:43:37.462Z,0
2017-10-27T03:44:38.868Z,0
2017-10-27T03:45:40.233Z,0
2017-10-27T03:46:41.641Z,0
2017-10-27T03:47:43.012Z,0
2017-10-27T03:48:44.420Z,0
2017-10-27T03:49:45.822Z,0
2017-10-27T03:50:47.324Z,0
2017-10-27T03:51:48.697Z,0
2017-10-27T03:52:50.185Z,0
2017-10-27T03:53:51.545Z,0
2017-10-27T03:54:52.957Z,0
2017-10-27T03:55:54.327Z,0
2017-10-27T03:56:55.742Z,0
2017-10-27T03:57:57.155Z,0
2017-10-27T03:58:58.614Z,0
2017-10-27T03:59:59.983Z,0
2017-10-27T04:01:01.398Z,0
2017-10-27T04:02:02.776Z,0
2017-10-27T04:03:04.280Z,0
2017-10-27T04:04:05.657Z,0
2017-10-27T04:05:07.156Z,0
2017-10-27T04:06:08.520Z,0
2017-10-27T04:07:09.944Z,0
2017-10-27T04:08:11.311Z,0
2017-10-27T04:09:12.815Z,0
2017-10-27T04:10:14.205Z,0
2017-10-27T04:11:15.698Z,0
2017-10-27T04:12:17.079Z,0
2017-10-27T04:13:18.587Z,0
2017-10-27T04:14:20.001Z,0
2017-10-27T04:15:21.475Z,0
2017-10-27T04:16:22.843Z,0
2017-10-27T04:17:24.218Z,0
2017-10-27T04:18:25.587Z,0
2017-10-27T04:19:27.017Z,0
2017-10-27T04:20:28.399Z,0
2017-10-27T04:21:29.894Z,0
2017-10-27T04:22:31.266Z,0
2017-10-27T04:23:32.775Z,0
2017-10-27T04:24:34.161Z,0
2017-10-27T04:25:40.579Z,0
2017-10-27T04:26:41.947Z,0
2017-10-27T04:27:43.502Z,0
2017-10-27T04:28:44.874Z,0
2017-10-27T04:29:46.352Z,0
2017-10-27T04:30:47.744Z,0
2017-10-27T04:31:50.260Z,0
2017-10-27T04:32:51.696Z,0
2017-10-27T04:33:53.163Z,0
2017-10-27T04:34:54.570Z,0
2017-10-27T04:35:58.120Z,0
2017-10-27T04:36:59.515Z,0
2017-10-27T04:38:01.042Z,0
2017-10-27T04:39:02.511Z,0
2017-10-27T04:40:04.065Z,0
2017-10-27T04:41:05.522Z,0
2017-10-27T04:42:07.042Z,0
2017-10-27T04:43:08.539Z,0
2017-10-27T04:44:09.953Z,0
2017-10-27T04:45:11.403Z,0
2017-10-27T04:46:12.808Z,0
2017-10-27T04:47:14.315Z,0
2017-10-27T04:48:15.747Z,0
2017-10-27T04:49:17.206Z,0
2017-10-27T04:50:18.587Z,0
2017-10-27T04:51:20.125Z,0
2017-10-27T04:52:21.537Z,0
2017-10-27T04:53:23.085Z,0
2017-10-27T04:54:24.567Z,0
2017-10-27T04:55:28.072Z,0
2017-10-27T04:56:29.586Z,0
2017-10-27T04:57:31.074Z,0
2017-10-27T04:58:32.466Z,0
2017-10-27T04:59:35.012Z,0
2017-10-27T05:00:36.405Z,0
2017-10-27T05:01:37.862Z,0
2017-10-27T05:02:39.281Z,0
2017-10-27T05:03:40.754Z,0
2017-10-27T05:04:42.142Z,0
2017-10-27T05:05:43.592Z,0
2017-10-27T05:06:44.988Z,0
2017-10-27T05:07:46.603Z,0
2017-10-27T05:08:48.018Z,0
2017-10-27T05:09:49.462Z,0
2017-10-27T05:10:50.836Z,0
2017-10-27T05:11:58.069Z,0
2017-10-27T05:12:59.465Z,0
2017-10-27T05:14:00.979Z,0
2017-10-27T05:15:02.390Z,0
2017-10-27T05:16:03.906Z,0
2017-10-27T05:17:05.352Z,0
2017-10-27T05:18:06.790Z,0
2017-10-27T05:19:09.357Z,0
2017-10-27T05:20:10.779Z,0
2017-10-27T05:21:12.281Z,0
2017-10-27T05:22:13.702Z,0
2017-10-27T05:23:15.149Z,0
2017-10-27T05:24:16.551Z,0
2017-10-27T05:25:18.029Z,0
2017-10-27T05:26:19.454Z,0
2017-10-27T05:27:20.998Z,0
2017-10-27T05:28:22.401Z,0
2017-10-27T05:29:24.021Z,0
2017-10-27T05:30:25.411Z,0
2017-10-27T05:31:26.895Z,0
2017-10-27T05:32:28.323Z,0
2017-10-27T05:33:29.759Z,0
2017-10-27T05:34:31.185Z,0
2017-10-27T05:35:32.576Z,0
2017-10-27T05:36:34.175Z,0
2017-10-27T05:37:35.560Z,0
2017-10-27T05:38:37.078Z,0
2017-10-27T05:39:38.486Z,0
2017-10-27T05:40:39.986Z,0
2017-10-27T05:41:41.394Z,4
2017-10-27T05:42:42.809Z,4
2017-10-27T05:43:44.244Z,4
2017-10-27T05:44:45.714Z,4
2017-10-27T05:45:47.102Z,4
2017-10-27T05:46:48.578Z,8
2017-10-27T05:47:49.972Z,8
2017-10-27T05:48:51.490Z,8
2017-10-27T05:49:52.890Z,8
2017-10-27T05:50:54.353Z,8
2017-10-27T05:51:55.741Z,16
2017-10-27T05:52:57.212Z,16
2017-10-27T05:53:58.583Z,20
2017-10-27T05:55:00.006Z,36
2017-10-27T05:56:01.400Z,24
2017-10-27T05:57:02.983Z,36
2017-10-27T05:58:04.324Z,40
2017-10-27T05:59:05.751Z,40
2017-10-27T06:00:07.146Z,36
2017-10-27T06:01:08.675Z,36
2017-10-27T06:02:10.172Z,32
2017-10-27T06:03:11.622Z,36
2017-10-27T06:04:12.984Z,36
2017-10-27T06:05:14.555Z,28
2017-10-27T06:06:15.953Z,40
2017-10-27T06:07:17.364Z,52
2017-10-27T06:08:18.730Z,52
2017-10-27T06:09:20.208Z,52
2017-10-27T06:10:21.649Z,84
2017-10-27T06:11:23.125Z,76
2017-10-27T06:12:25.152Z,56
2017-10-27T06:13:26.633Z,80
2017-10-27T06:14:28.113Z,104
2017-10-27T06:15:29.623Z,104
2017-10-27T06:16:30.996Z,100
2017-10-27T06:17:32.479Z,128
2017-10-27T06:18:33.970Z,148
2017-10-27T06:19:35.368Z,136
2017-10-27T06:20:36.803Z,136
2017-10-27T06:21:38.255Z,140
2017-10-27T06:22:39.693Z,164
2017-10-27T06:23:41.077Z,172
2017-10-27T06:24:42.752Z,164
2017-10-27T06:25:44.120Z,132
2017-10-27T06:26:45.594Z,124
2017-10-27T06:27:47.001Z,128
2017-10-27T06:28:48.496Z,120
2017-10-27T06:29:49.910Z,108
2017-10-27T06:30:51.442Z,100
2017-10-27T06:31:52.851Z,120
2017-10-27T06:32:54.356Z,120
2017-10-27T06:33:55.787Z,120
2017-10-27T06:34:57.344Z,180
2017-10-27T06:35:58.771Z,224
2017-10-27T06:37:00.264Z,268
2017-10-27T06:38:01.805Z,316
2017-10-27T06:39:03.279Z,380
2017-10-27T06:40:04.717Z,356
2017-10-27T06:41:12.120Z,340
2017-10-27T06:42:13.584Z,356
2017-10-27T06:43:25.636Z,288
2017-10-27T06:44:27.170Z,224
2017-10-27T06:45:28.603Z,276
2017-10-27T06:46:30.065Z,312
2017-10-27T06:47:36.114Z,328
2017-10-27T06:48:38.380Z,392
2017-10-27T06:49:41.389Z,432
2017-10-27T06:50:44.910Z,408
2017-10-27T06:51:46.539Z,400
2017-10-27T06:52:49.194Z,496
2017-10-27T06:53:50.649Z,628
2017-10-27T06:54:52.227Z,724
2017-10-27T06:55:53.745Z,764
2017-10-27T06:56:55.651Z,808
2017-10-27T06:57:57.465Z,896
2017-10-27T06:59:00.100Z,908
2017-10-27T07:00:01.593Z,1080
2017-10-27T07:01:03.283Z,1136
2017-10-27T07:02:05.229Z,1004
2017-10-27T07:03:07.927Z,976
2017-10-27T07:04:09.739Z,1044
2017-10-27T07:05:22.270Z,1160
2017-10-27T07:06:23.791Z,1264
2017-10-27T07:07:25.564Z,1332
2017-10-27T07:08:27.149Z,1416
2017-10-27T07:09:28.878Z,1460
2017-10-27T07:10:30.497Z,1444
2017-10-27T07:11:32.038Z,1484
2017-10-27T07:12:33.796Z,1760
2017-10-27T07:13:35.821Z,1996
2017-10-27T07:14:37.405Z,2224
2017-10-27T07:15:39.413Z,2448
2017-10-27T07:16:41.001Z,2684
2017-10-27T07:17:42.765Z,3072
2017-10-27T07:18:44.274Z,3408
2017-10-27T07:19:45.881Z,3576
2017-10-27T07:20:47.379Z,3876
2017-10-27T07:21:49.067Z,3832
2017-10-27T07:22:50.609Z,3488
2017-10-27T07:23:52.287Z,3464
2017-10-27T07:24:53.869Z,3740
2017-10-27T07:25:55.537Z,4460
2017-10-27T07:26:57.114Z,5472
2017-10-27T07:27:58.708Z,6332
2017-10-27T07:29:00.321Z,6380
2017-10-27T07:30:02.039Z,5916
2017-10-27T07:31:03.599Z,5032
2017-10-27T07:32:05.432Z,4068
2017-10-27T07:33:06.907Z,4096
2017-10-27T07:34:09.503Z,4696
2017-10-27T07:35:11.042Z,5568
2017-10-27T07:36:12.727Z,5888
2017-10-27T07:37:14.303Z,6376
2017-10-27T07:38:16.030Z,7376
2017-10-27T07:39:17.594Z,8452
2017-10-27T07:40:19.362Z,9656
2017-10-27T07:41:20.905Z,10932
2017-10-27T07:42:22.704Z,10396
2017-10-27T07:43:24.255Z,9732
2017-10-27T07:44:25.910Z,10668
2017-10-27T07:45:27.567Z,11952
2017-10-27T07:46:29.386Z,11244
2017-10-27T07:47:31.022Z,9728
2017-10-27T07:48:32.831Z,7016
2017-10-27T07:49:34.480Z,7516
2017-10-27T07:50:37.076Z,9496
2017-10-27T07:51:38.642Z,8780
2017-10-27T07:52:40.237Z,8460
2017-10-27T07:53:41.855Z,8080
2017-10-27T07:54:43.571Z,8256
2017-10-27T07:55:45.238Z,6524
2017-10-27T07:56:46.879Z,7308
2017-10-27T07:57:48.503Z,8896
2017-10-27T07:58:50.785Z,10708
2017-10-27T07:59:52.312Z,11268
2017-10-27T08:00:54.065Z,12520
2017-10-27T08:01:55.542Z,13808
2017-10-27T08:02:57.299Z,12632
2017-10-27T08:03:58.946Z,13052
2017-10-27T08:05:06.965Z,14868
2017-10-27T08:06:08.658Z,15272
2017-10-27T08:07:10.318Z,12156
2017-10-27T08:08:13.338Z,10276
2017-10-27T08:09:15.096Z,10328
2017-10-27T08:10:16.649Z,10312
2017-10-27T08:11:18.594Z,11160
2017-10-27T08:12:20.765Z,14112
2017-10-27T08:13:22.482Z,14496
2017-10-27T08:14:24.431Z,14648
2017-10-27T08:15:26.597Z,15584
2017-10-27T08:16:28.179Z,15256
2017-10-27T08:17:29.990Z,14100
2017-10-27T08:18:31.519Z,14124
2017-10-27T08:19:33.341Z,15428
2017-10-27T08:20:35.260Z,15576
2017-10-27T08:21:38.622Z,14932
2017-10-27T08:22:40.220Z,11712
2017-10-27T08:23:42.022Z,12272
2017-10-27T08:24:44.009Z,13468
2017-10-27T08:25:45.826Z,13424
2017-10-27T08:26:47.658Z,14532
2017-10-27T08:27:49.302Z,14220
2017-10-27T08:28:50.977Z,11684
2017-10-27T08:29:52.818Z,10748
2017-10-27T08:30:54.540Z,12420
2017-10-27T08:31:56.496Z,11236
2017-10-27T08:32:58.269Z,12184
2017-10-27T08:34:01.238Z,16468
2017-10-27T08:35:02.888Z,17132
2017-10-27T08:36:04.648Z,13300
2017-10-27T08:37:06.591Z,17392
2017-10-27T08:38:08.344Z,17632
2017-10-27T08:39:09.858Z,15328
2017-10-27T08:40:12.422Z,13692
2017-10-27T08:41:14.285Z,16156
2017-10-27T08:42:16.021Z,18496
2017-10-27T08:43:17.601Z,10480
2017-10-27T08:44:19.302Z,10960
2017-10-27T08:45:21.703Z,15264
2017-10-27T08:46:23.283Z,17836
2017-10-27T08:47:24.899Z,18976
2017-10-27T08:48:26.702Z,14480
2017-10-27T08:49:28.287Z,12748
2017-10-27T08:50:30.102Z,14984
2017-10-27T08:51:31.770Z,16956
2017-10-27T08:52:33.508Z,15708
2017-10-27T08:53:35.152Z,13548
2017-10-27T08:54:36.960Z,12552
2017-10-27T08:55:38.834Z,14364
2017-10-27T08:56:40.581Z,13604
2017-10-27T08:57:42.163Z,13816
2017-10-27T08:58:44.044Z,13068
2017-10-27T08:59:45.661Z,14868
2017-10-27T09:00:47.982Z,16196
2017-10-27T09:01:49.573Z,12184
2017-10-27T09:02:52.364Z,11096
2017-10-27T09:03:53.914Z,12576
2017-10-27T09:04:55.691Z,13708
2017-10-27T09:05:57.274Z,10864
2017-10-27T09:06:59.014Z,12544
2017-10-27T09:08:00.637Z,14912
2017-10-27T09:09:03.467Z,11176
2017-10-27T09:10:05.154Z,11372
2017-10-27T09:11:06.860Z,13952
2017-10-27T09:12:08.431Z,12948
2017-10-27T09:13:10.147Z,14624
2017-10-27T09:14:11.817Z,15384
2017-10-27T09:15:13.673Z,14448
2017-10-27T09:16:15.352Z,15568
2017-10-27T09:17:18.188Z,15628
2017-10-27T09:18:19.934Z,10572
2017-10-27T09:19:21.680Z,9732
2017-10-27T09:20:23.335Z,12504
2017-10-27T09:21:25.017Z,13360
2017-10-27T09:22:26.799Z,15196
2017-10-27T09:23:28.613Z,13872
2017-10-27T09:24:30.215Z,13764
2017-10-27T09:25:31.992Z,22656
2017-10-27T09:26:33.701Z,15240
2017-10-27T09:27:35.445Z,16532
2017-10-27T09:28:37.151Z,19456
2017-10-27T09:29:39.075Z,24128
2017-10-27T09:30:40.866Z,19232
2017-10-27T09:31:42.627Z,15000
2017-10-27T09:32:44.433Z,14072
2017-10-27T09:33:46.180Z,16544
2017-10-27T09:34:47.892Z,19968
2017-10-27T09:35:49.708Z,16312
2017-10-27T09:36:51.364Z,14656
2017-10-27T09:37:53.178Z,15884
2017-10-27T09:38:54.869Z,12808
2017-10-27T09:39:56.561Z,34624
2017-10-27T09:40:58.218Z,12624
2017-10-27T09:41:59.950Z,20832
2017-10-27T09:43:01.579Z,43296
2017-10-27T09:44:04.278Z,46944
2017-10-27T09:45:05.875Z,45824
2017-10-27T09:46:07.536Z,17220
2017-10-27T09:47:09.125Z,40064
2017-10-27T09:48:10.990Z,37088
2017-10-27T09:49:12.652Z,27296
2017-10-27T09:50:14.422Z,15568
2017-10-27T09:51:15.976Z,47168
2017-10-27T09:52:17.633Z,50496
2017-10-27T09:53:19.353Z,23744
2017-10-27T09:54:21.219Z,49312
2017-10-27T09:55:22.851Z,52096
2017-10-27T09:56:24.701Z,52608
2017-10-27T09:57:26.346Z,17616
2017-10-27T09:58:29.250Z,13076
2017-10-27T09:59:30.895Z,12944
2017-10-27T10:00:43.531Z,34208
2017-10-27T10:01:45.256Z,24992
2017-10-27T10:02:48.090Z,51744
2017-10-27T10:03:49.675Z,49088
2017-10-27T10:04:51.409Z,52480
2017-10-27T10:05:53.138Z,52256
2017-10-27T10:06:54.963Z,53184
2017-10-27T10:07:56.621Z,52800
2017-10-27T10:08:59.601Z,43040
2017-10-27T10:10:01.249Z,56000
2017-10-27T10:11:03.106Z,55168
2017-10-27T10:12:04.743Z,55040
2017-10-27T10:13:06.388Z,51648
2017-10-27T10:14:08.036Z,20320
2017-10-27T10:15:10.890Z,60608
2017-10-27T10:16:12.574Z,30144
2017-10-27T10:17:15.256Z,28544
2017-10-27T10:18:20.557Z,62176
2017-10-27T10:19:22.454Z,62528
2017-10-27T10:20:24.103Z,70112
2017-10-27T10:21:25.827Z,73664
2017-10-27T10:22:27.952Z,71744
2017-10-27T10:23:29.886Z,39584
2017-10-27T10:24:31.626Z,32640
2017-10-27T10:25:33.314Z,27136
2017-10-27T10:26:34.985Z,57440
2017-10-27T10:27:36.682Z,42880
2017-10-27T10:28:38.432Z,23392
2017-10-27T10:29:40.012Z,18976
2017-10-27T10:30:41.651Z,15880
2017-10-27T10:31:43.247Z,13400
2017-10-27T10:32:44.861Z,10580
2017-10-27T10:33:46.601Z,7856
2017-10-27T10:34:48.664Z,7256
2017-10-27T10:35:50.448Z,8120
2017-10-27T10:36:53.177Z,8952
2017-10-27T10:37:55.408Z,8916
2017-10-27T10:38:57.323Z,9220
2017-10-27T10:39:58.941Z,10088
2017-10-27T10:41:01.788Z,11388
2017-10-27T10:42:03.612Z,13272
2017-10-27T10:43:05.269Z,14280
2017-10-27T10:44:06.989Z,13648
2017-10-27T10:45:08.611Z,11844
2017-10-27T10:46:10.395Z,10820
2017-10-27T10:47:12.002Z,56288
2017-10-27T10:48:13.701Z,53664
2017-10-27T10:49:15.400Z,54944
2017-10-27T10:50:17.174Z,55232
2017-10-27T10:51:18.847Z,55136
2017-10-27T10:52:22.041Z,44096
2017-10-27T10:53:23.710Z,57248
2017-10-27T10:54:25.488Z,57696
2017-10-27T10:55:27.069Z,57920
2017-10-27T10:56:29.826Z,59936
2017-10-27T10:57:31.859Z,65600
2017-10-27T10:58:33.792Z,70848
2017-10-27T10:59:35.412Z,72288
2017-10-27T11:00:37.222Z,46848
2017-10-27T11:01:38.853Z,43008
2017-10-27T11:02:40.599Z,25376
2017-10-27T11:03:42.245Z,50048
2017-10-27T11:04:44.073Z,35712
2017-10-27T11:05:45.745Z,38368
2017-10-27T11:06:47.497Z,33152
2017-10-27T11:07:49.188Z,54176
2017-10-27T11:08:51.011Z,72736
2017-10-27T11:09:52.608Z,32480
2017-10-27T11:10:54.797Z,41920
2017-10-27T11:11:56.421Z,18784
2017-10-27T11:12:58.290Z,18880
2017-10-27T11:13:59.961Z,19424
2017-10-27T11:15:03.226Z,19616
2017-10-27T11:16:05.049Z,18208
2017-10-27T11:17:06.904Z,15084
2017-10-27T11:18:08.474Z,13676
2017-10-27T11:19:10.380Z,14560
2017-10-27T11:20:12.076Z,16980
2017-10-27T11:21:13.806Z,25920
2017-10-27T11:22:15.414Z,21632
2017-10-27T11:23:17.277Z,22752
2017-10-27T11:24:18.852Z,22720
2017-10-27T11:25:20.674Z,23648
2017-10-27T11:26:22.543Z,23776
2017-10-27T11:27:24.184Z,46304
2017-10-27T11:28:25.890Z,60960
2017-10-27T11:29:27.606Z,23808
2017-10-27T11:30:29.419Z,23872
2017-10-27T11:31:31.042Z,26560
2017-10-27T11:32:32.989Z,30560
2017-10-27T11:33:34.910Z,17904
2017-10-27T11:34:36.542Z,17172
2017-10-27T11:35:38.281Z,20960
2017-10-27T11:36:40.010Z,63904
2017-10-27T11:37:41.601Z,28192
2017-10-27T11:38:43.281Z,59648
2017-10-27T11:39:44.862Z,47232
2017-10-27T11:40:46.388Z,59712
2017-10-27T11:41:47.909Z,35360
2017-10-27T11:42:50.679Z,58496
2017-10-27T11:43:52.350Z,57280
2017-10-27T11:44:53.917Z,37312
2017-10-27T11:45:55.486Z,56160
2017-10-27T11:46:57.121Z,55392
2017-10-27T11:47:59.356Z,50624
2017-10-27T11:49:00.957Z,31200
2017-10-27T11:50:02.552Z,27744
2017-10-27T11:51:04.303Z,51296
2017-10-27T11:52:05.824Z,53568
2017-10-27T11:53:07.491Z,53952
2017-10-27T11:54:09.127Z,54624
2017-10-27T11:55:10.630Z,20224
2017-10-27T11:56:12.611Z,54400
2017-10-27T11:57:14.320Z,54848
2017-10-27T11:58:15.877Z,53600
2017-10-27T11:59:28.732Z,52672
2017-10-27T12:00:30.271Z,52672
2017-10-27T12:01:32.354Z,51488
2017-10-27T12:02:34.885Z,50912
2017-10-27T12:03:37.544Z,52576
2017-10-27T12:04:39.106Z,54912
2017-10-27T12:05:40.931Z,54624
2017-10-27T12:06:42.963Z,55872
2017-10-27T12:07:44.928Z,38048
2017-10-27T12:08:46.485Z,58016
2017-10-27T12:09:48.176Z,54528
2017-10-27T12:10:50.394Z,52672
2017-10-27T12:11:52.016Z,48160
2017-10-27T12:12:53.647Z,51744
2017-10-27T12:13:55.530Z,52448
2017-10-27T12:14:57.865Z,52864
2017-10-27T12:16:00.210Z,50784
2017-10-27T12:17:01.931Z,49184
2017-10-27T12:18:03.631Z,49536
2017-10-27T12:19:05.358Z,48960
2017-10-27T12:20:06.944Z,48160
2017-10-27T12:21:08.750Z,49216
2017-10-27T12:22:10.678Z,49312
2017-10-27T12:23:12.976Z,48416
2017-10-27T12:24:14.880Z,46624
2017-10-27T12:25:17.590Z,46336
2017-10-27T12:26:22.374Z,49024
2017-10-27T12:27:24.138Z,51296
2017-10-27T12:28:26.074Z,52768
2017-10-27T12:29:28.875Z,54400
2017-10-27T12:30:31.606Z,53024
2017-10-27T12:31:34.961Z,50368
2017-10-27T12:32:37.838Z,45440
2017-10-27T12:33:39.283Z,36736
2017-10-27T12:34:41.187Z,32352
2017-10-27T12:35:42.946Z,36704
2017-10-27T12:36:44.931Z,45216
2017-10-27T12:37:46.773Z,47232
2017-10-27T12:38:50.794Z,49792
2017-10-27T12:39:56.314Z,47808
2017-10-27T12:40:59.206Z,47552
2017-10-27T12:42:03.299Z,47616
2017-10-27T12:43:07.774Z,47200
2017-10-27T12:44:09.856Z,46112
2017-10-27T12:45:12.717Z,44352
2017-10-27T12:46:14.412Z,44192
2017-10-27T12:47:16.389Z,42336
2017-10-27T12:48:19.412Z,46304
2017-10-27T12:49:21.878Z,46656
2017-10-27T12:50:24.655Z,43840
2017-10-27T12:51:27.894Z,47104
2017-10-27T12:52:29.770Z,47328
2017-10-27T12:53:31.692Z,47040
2017-10-27T12:54:35.666Z,47136
2017-10-27T12:55:38.833Z,47616
2017-10-27T12:56:42.651Z,48320
2017-10-27T12:57:44.523Z,48224
2017-10-27T12:58:48.815Z,50048
2017-10-27T12:59:50.992Z,55104
2017-10-27T13:00:53.780Z,56864
2017-10-27T13:01:55.803Z,57312
2017-10-27T13:02:57.972Z,53984
2017-10-27T13:04:00.099Z,19712
2017-10-27T13:05:02.934Z,19328
2017-10-27T13:06:04.820Z,24448
2017-10-27T13:07:08.289Z,55264
2017-10-27T13:09:17.109Z,52128
2017-10-27T13:10:21.115Z,50784
2017-10-27T13:11:23.434Z,18784
2017-10-27T13:12:25.257Z,31680
2017-10-27T13:13:27.586Z,24256
2017-10-27T13:14:29.413Z,18720
2017-10-27T13:16:11.664Z,12972
2017-10-27T13:17:13.161Z,13772
2017-10-27T13:18:14.859Z,14948
2017-10-27T13:19:16.267Z,14728
2017-10-27T13:20:19.904Z,14016
2017-10-27T13:21:22.373Z,14224
2017-10-27T13:22:26.019Z,11972
2017-10-27T13:23:30.714Z,11036
2017-10-27T13:24:33.863Z,10804
2017-10-27T13:25:35.223Z,11060
2017-10-27T13:26:37.840Z,11348
2017-10-27T13:27:40.898Z,10924
2017-10-27T13:28:46.474Z,9964
2017-10-27T13:29:50.583Z,8504
2017-10-27T13:30:53.144Z,7728
2017-10-27T13:31:56.071Z,8400
2017-10-27T13:32:58.504Z,9876
2017-10-27T13:34:01.087Z,11044
2017-10-27T13:35:02.634Z,11840
2017-10-27T13:36:06.174Z,11332
2017-10-27T13:37:07.979Z,10104
2017-10-27T13:38:09.958Z,8860
2017-10-27T13:39:11.824Z,7724
2017-10-27T13:40:14.950Z,7276
2017-10-27T13:41:19.509Z,7224
2017-10-27T13:42:22.581Z,7128
2017-10-27T13:43:26.781Z,7068
2017-10-27T13:44:28.345Z,7420
2017-10-27T13:45:32.703Z,7540
2017-10-27T13:46:37.597Z,10964
2017-10-27T13:47:42.457Z,11696
2017-10-27T13:48:45.570Z,11440
2017-10-27T13:49:47.132Z,12476
2017-10-27T13:50:48.790Z,18752
2017-10-27T13:51:51.165Z,15808
2017-10-27T13:52:52.879Z,14772
2017-10-27T13:53:54.605Z,15972
2017-10-27T13:54:56.185Z,15864
2017-10-27T13:55:57.828Z,16912
2017-10-27T13:57:00.088Z,17012
2017-10-27T13:58:02.220Z,18208
2017-10-27T13:59:03.883Z,18336
2017-10-27T14:00:07.574Z,16268
2017-10-27T14:01:09.416Z,16332
2017-10-27T14:02:11.282Z,13176
2017-10-27T14:03:14.452Z,12696
2017-10-27T14:04:16.323Z,12544
2017-10-27T14:05:17.977Z,14968
2017-10-27T14:06:20.107Z,12688
2017-10-27T14:07:22.596Z,14276
2017-10-27T14:08:24.375Z,12824
2017-10-27T14:09:26.957Z,11960
2017-10-27T14:10:29.461Z,13284
2017-10-27T14:11:31.842Z,12400